Time;durP1;ratioP1;P1;durP2;ratioP2;P2;SDS_P1;SDS_P2;PMS_P1;PMS_P2;Temp;Humidity;BMP_temperature;BMP_pressure;BME280_temperature;BME280_humidity;BME280_pressure;Samples;Min_cycle;Max_cycle;Signal;HPM_P1;HPM_P2
2021/09/01 00:01:30;;;;;;;4.78;2.92;;;;;;;;;;5073552;28;20429;-77
2021/09/01 00:03:56;;;;;;;8.02;3.72;;;;;;;;;;5074631;28;20021;-77
2021/09/01 00:06:21;;;;;;;5.40;2.97;;;;;;;;;;5073568;28;20017;-76
2021/09/01 00:08:51;;;;;;;5.80;4.75;;;;;;;;;;5073785;28;20499;-77
2021/09/01 00:11:18;;;;;;;9.75;6.30;;;;;;;;;;5073355;28;20063;-77
2021/09/01 00:13:44;;;;;;;5.10;3.95;;;;;;;;;;5073580;28;20032;-76
2021/09/01 00:16:26;;;;;;;5.60;4.60;;;;;;;;;;5073484;28;20029;-77
2021/09/01 00:18:57;;;;;;;5.22;3.60;;;;;;;;;;5072114;28;20430;-78
2021/09/01 00:21:23;;;;;;;4.43;2.45;;;;;;;;;;5073211;28;20021;-78
2021/09/01 00:23:50;;;;;;;8.13;5.30;;;;;;;;;;5073226;28;20028;-77
2021/09/01 00:26:16;;;;;;;4.78;2.90;;;;;;;;;;5073453;28;20445;-77
2021/09/01 00:28:42;;;;;;;5.43;3.75;;;;;;;;;;5073452;28;20021;-77
2021/09/01 00:31:08;;;;;;;5.63;2.58;;;;;;;;;;5092853;28;20039;-77
2021/09/01 00:33:33;;;;;;;6.97;5.68;;;;;;;;;;5077351;28;20016;-77
2021/09/01 00:35:59;;;;;;;6.28;4.00;;;;;;;;;;5077385;28;20031;-77
2021/09/01 00:38:24;;;;;;;5.40;2.97;;;;;;;;;;5077409;28;20443;-77
2021/09/01 00:40:54;;;;;;;6.57;2.58;;;;;;;;;;5077324;28;20052;-77
2021/09/01 00:43:21;;;;;;;6.10;3.97;;;;;;;;;;5077193;28;20042;-77
2021/09/01 00:45:47;;;;;;;5.47;3.88;;;;;;;;;;5093281;28;20166;-77
2021/09/01 00:48:17;;;;;;;4.70;3.10;;;;;;;;;;5077165;28;20609;-77
2021/09/01 00:50:43;;;;;;;;;;;;;;;;;;5093480;28;20476;-77
2021/09/01 00:53:10;;;;;;;5.20;3.20;;;;;;;;;;5077042;28;19970;-77
2021/09/01 00:55:36;;;;;;;4.97;3.45;;;;;;;;;;5076986;28;20031;-77
2021/09/01 00:58:02;;;;;;;6.65;1.90;;;;;;;;;;5077028;28;20021;-77
2021/09/01 01:00:46;;;;;;;4.90;2.67;;;;;;;;;;5076882;28;20380;-78
2021/09/01 01:03:14;;;;;;;9.32;8.57;;;;;;;;;;5076806;28;20452;-77
2021/09/01 01:05:39;;;;;;;4.78;2.25;;;;;;;;;;5076886;28;20021;-77
2021/09/01 01:08:06;;;;;;;8.20;4.22;;;;;;;;;;5076851;28;20031;-77
2021/09/01 01:10:32;;;;;;;4.68;3.75;;;;;;;;;;5075488;28;20476;-77
2021/09/01 01:12:58;;;;;;;5.95;3.65;;;;;;;;;;5076703;28;20036;-77
2021/09/01 01:15:24;;;;;;;5.80;4.05;;;;;;;;;;5075280;28;20544;-77
2021/09/01 01:17:50;;;;;;;5.60;2.83;;;;;;;;;;5076345;28;20051;-78
2021/09/01 01:20:16;;;;;;;4.38;2.33;;;;;;;;;;5076667;28;20028;-78
2021/09/01 01:22:41;;;;;;;6.78;2.50;;;;;;;;;;5076410;28;20036;-77
2021/09/01 01:25:08;;;;;;;5.13;3.78;;;;;;;;;;5076458;28;20024;-77
2021/09/01 01:27:35;;;;;;;4.75;2.33;;;;;;;;;;5076772;28;20020;-77
2021/09/01 01:30:08;;;;;;;6.72;3.45;;;;;;;;;;5076579;28;20032;-78
2021/09/01 01:32:35;;;;;;;4.97;2.38;;;;;;;;;;5076327;28;20013;-78
2021/09/01 01:35:01;;;;;;;5.47;4.15;;;;;;;;;;5076262;28;20095;-78
2021/09/01 01:37:26;;;;;;;5.18;2.60;;;;;;;;;;5075061;28;20105;-78
2021/09/01 01:39:52;;;;;;;4.90;2.00;;;;;;;;;;5076356;28;20066;-78
2021/09/01 01:42:17;;;;;;;5.18;2.58;;;;;;;;;;5074949;28;20388;-79
2021/09/01 01:44:43;;;;;;;5.15;3.88;;;;;;;;;;5074783;28;20033;-78
2021/09/01 01:47:09;;;;;;;7.97;3.90;;;;;;;;;;5075853;28;20032;-77
2021/09/01 01:49:35;;;;;;;8.00;7.32;;;;;;;;;;5076405;28;20399;-78
2021/09/01 01:52:01;;;;;;;5.07;1.92;;;;;;;;;;5075987;28;20055;-77
2021/09/01 01:54:26;;;;;;;6.00;3.30;;;;;;;;;;5075955;28;20046;-79
2021/09/01 01:56:52;;;;;;;8.43;4.57;;;;;;;;;;5076204;28;20025;-77
2021/09/01 01:59:19;;;;;;;4.78;3.05;;;;;;;;;;5075838;28;20029;-77
2021/09/01 02:01:44;;;;;;;7.53;6.65;;;;;;;;;;5075777;28;20169;-77
2021/09/01 02:04:10;;;;;;;4.25;2.40;;;;;;;;;;5075756;28;20052;-77
2021/09/01 02:06:36;;;;;;;5.05;2.08;;;;;;;;;;5074703;28;20472;-77
2021/09/01 02:09:01;;;;;;;4.28;3.40;;;;;;;;;;5076264;28;20544;-77
2021/09/01 02:11:27;;;;;;;5.05;3.53;;;;;;;;;;5091363;28;20029;-78
2021/09/01 02:13:53;;;;;;;7.70;2.50;;;;;;;;;;5076424;28;20029;-77
2021/09/01 02:16:19;;;;;;;5.10;2.13;;;;;;;;;;5092749;28;20052;-78
2021/09/01 02:18:44;;;;;;;4.28;2.20;;;;;;;;;;5076028;28;20056;-77
2021/09/01 02:21:10;;;;;;;5.65;2.15;;;;;;;;;;5087306;28;20004;-77
2021/09/01 02:23:35;;;;;;;4.72;2.83;;;;;;;;;;5100202;28;20016;-77
2021/09/01 02:26:01;;;;;;;4.63;2.17;;;;;;;;;;5091645;28;20033;-77
2021/09/01 02:28:27;;;;;;;5.65;3.88;;;;;;;;;;5077986;28;20052;-77
2021/09/01 02:30:52;;;;;;;7.28;4.05;;;;;;;;;;5077803;28;20024;-77
2021/09/01 02:33:18;;;;;;;5.07;3.10;;;;;;;;;;5076975;28;20028;-78
2021/09/01 02:35:44;;;;;;;4.57;3.58;;;;;;;;;;5075718;28;20477;-77
2021/09/01 02:38:10;;;;;;;4.43;2.03;;;;;;;;;;5075405;28;20086;-78
2021/09/01 02:40:35;;;;;;;4.80;2.17;;;;;;;;;;5075435;28;20032;-77
2021/09/01 02:43:01;;;;;;;4.63;3.25;;;;;;;;;;5073763;28;20029;-77
2021/09/01 02:45:26;;;;;;;4.43;2.90;;;;;;;;;;5075387;28;20075;-76
2021/09/01 02:47:52;;;;;;;5.43;1.98;;;;;;;;;;5090576;28;20040;-77
2021/09/01 02:50:18;;;;;;;4.30;1.98;;;;;;;;;;5075015;28;20081;-78
2021/09/01 02:52:44;;;;;;;4.82;3.40;;;;;;;;;;5074579;28;20017;-77
2021/09/01 02:55:10;;;;;;;5.53;2.35;;;;;;;;;;5075108;28;20056;-78
2021/09/01 02:57:36;;;;;;;3.92;1.73;;;;;;;;;;5075120;28;20440;-77
2021/09/01 03:00:04;;;;;;;5.63;3.17;;;;;;;;;;5074607;28;20024;-77
2021/09/01 03:02:30;;;;;;;5.30;4.80;;;;;;;;;;5074443;28;20438;-77
2021/09/01 03:04:56;;;;;;;4.43;2.20;;;;;;;;;;5074524;28;20032;-77
2021/09/01 03:07:21;;;;;;;;;;;;;;;;;;5075012;28;20063;-77
2021/09/01 03:09:47;;;;;;;4.70;2.60;;;;;;;;;;5074551;28;19912;-77
2021/09/01 03:12:12;;;;;;;4.15;1.92;;;;;;;;;;5074290;28;20063;-77
2021/09/01 03:14:38;;;;;;;;;;;;;;;;;;5074999;28;19920;-77
2021/09/01 03:17:03;;;;;;;;;;;;;;;;;;5074817;28;19967;-77
2021/09/01 03:19:29;;;;;;;;;;;;;;;;;;5074926;28;19912;-77
2021/09/01 03:21:54;;;;;;;;;;;;;;;;;;5074613;28;19913;-78
2021/09/01 03:24:20;;;;;;;5.10;2.08;;;;;;;;;;5074352;28;19912;-77
2021/09/01 03:26:46;;;;;;;5.50;2.50;;;;;;;;;;5074392;28;20024;-77
2021/09/01 03:29:11;;;;;;;4.88;2.17;;;;;;;;;;5074113;28;20031;-78
2021/09/01 03:31:37;;;;;;;3.72;1.67;;;;;;;;;;5074358;28;20044;-77
2021/09/01 03:34:02;;;;;;;4.53;1.50;;;;;;;;;;5074019;28;20117;-77
2021/09/01 03:36:28;;;;;;;6.05;3.47;;;;;;;;;;5073992;28;20033;-78
2021/09/01 03:38:54;;;;;;;3.80;2.20;;;;;;;;;;5074330;28;20017;-77
2021/09/01 03:41:19;;;;;;;9.75;3.63;;;;;;;;;;5073855;28;20051;-78
2021/09/01 03:43:45;;;;;;;6.32;2.03;;;;;;;;;;5073916;28;20105;-78
2021/09/01 03:46:11;;;;;;;7.20;3.05;;;;;;;;;;5073887;28;20032;-77
2021/09/01 03:48:36;;;;;;;5.45;1.73;;;;;;;;;;5073794;28;20027;-77
2021/09/01 03:51:02;;;;;;;7.20;2.85;;;;;;;;;;5074008;28;20487;-78
2021/09/01 03:53:28;;;;;;;6.28;1.35;;;;;;;;;;5073785;28;20028;-78
2021/09/01 03:55:54;;;;;;;10.55;2.35;;;;;;;;;;5073715;28;20120;-77
2021/09/01 03:58:20;;;;;;;8.65;1.98;;;;;;;;;;5073677;28;20047;-77
2021/09/01 04:00:45;;;;;;;6.95;2.08;;;;;;;;;;5074699;28;20077;-77
2021/09/01 04:03:11;;;;;;;5.82;3.38;;;;;;;;;;5074265;28;20031;-77
2021/09/01 04:05:37;;;;;;;5.68;5.05;;;;;;;;;;5073066;28;20429;-77
2021/09/01 04:08:03;;;;;;;6.25;4.00;;;;;;;;;;5073608;28;20025;-77
2021/09/01 04:10:29;;;;;;;4.65;2.03;;;;;;;;;;5073592;28;20350;-77
2021/09/01 04:12:54;;;;;;;4.25;1.67;;;;;;;;;;5074371;28;20025;-77
2021/09/01 04:15:20;;;;;;;5.57;2.28;;;;;;;;;;5088976;28;20035;-77
2021/09/01 04:17:46;;;;;;;5.90;1.80;;;;;;;;;;5073315;28;20037;-78
2021/09/01 04:20:12;;;;;;;6.80;4.05;;;;;;;;;;5073896;28;20036;-78
2021/09/01 04:22:37;;;;;;;5.90;3.70;;;;;;;;;;5089936;28;20032;-77
2021/09/01 04:25:04;;;;;;;4.75;3.00;;;;;;;;;;5074338;28;20025;-78
2021/09/01 04:27:30;;;;;;;3.92;1.95;;;;;;;;;;5089562;28;20115;-78
2021/09/01 04:29:56;;;;;;;5.35;3.03;;;;;;;;;;5088912;28;20116;-77
2021/09/01 04:32:21;;;;;;;5.13;2.92;;;;;;;;;;5073260;28;20017;-78
2021/09/01 04:34:47;;;;;;;5.97;3.08;;;;;;;;;;5073302;28;20016;-78
2021/09/01 04:37:13;;;;;;;6.47;5.43;;;;;;;;;;5073219;28;20108;-77
2021/09/01 04:39:39;;;;;;;9.68;5.25;;;;;;;;;;5073264;28;20381;-78
2021/09/01 04:42:05;;;;;;;8.30;2.63;;;;;;;;;;5073634;28;20021;-77
2021/09/01 04:44:32;;;;;;;7.15;3.97;;;;;;;;;;5073209;28;20048;-78
2021/09/01 04:46:58;;;;;;;6.00;3.38;;;;;;;;;;5073169;28;20021;-78
2021/09/01 04:49:25;;;;;;;4.60;2.97;;;;;;;;;;5088806;28;20056;-78
2021/09/01 04:51:52;;;;;;;5.72;2.97;;;;;;;;;;5073007;28;20035;-78
2021/09/01 04:54:17;;;;;;;5.88;3.53;;;;;;;;;;5073110;28;20031;-78
2021/09/01 04:56:43;;;;;;;5.55;3.63;;;;;;;;;;5073073;28;20025;-78
2021/09/01 04:59:09;;;;;;;6.88;6.18;;;;;;;;;;5072994;28;20025;-78
2021/09/01 05:01:35;;;;;;;8.55;7.32;;;;;;;;;;5072988;28;20108;-80
2021/09/01 05:04:00;;;;;;;5.05;3.83;;;;;;;;;;5072975;28;20119;-78
2021/09/01 05:06:27;;;;;;;7.53;4.55;;;;;;;;;;5073016;28;20028;-78
2021/09/01 05:08:56;;;;;;;4.38;2.17;;;;;;;;;;5072569;28;20066;-77
2021/09/01 05:11:22;;;;;;;5.50;3.42;;;;;;;;;;5071656;28;20031;-78
2021/09/01 05:13:48;;;;;;;7.45;5.97;;;;;;;;;;5071634;28;20032;-77
2021/09/01 05:16:14;;;;;;;5.05;2.13;;;;;;;;;;5073600;28;20548;-78
2021/09/01 05:18:40;;;;;;;8.23;3.75;;;;;;;;;;5075175;28;20136;-77
2021/09/01 05:21:06;;;;;;;4.82;2.00;;;;;;;;;;5076433;28;20029;-77
2021/09/01 05:23:34;;;;;;;6.15;4.15;;;;;;;;;;5076440;28;20031;-78
2021/09/01 05:26:02;;;;;;;4.88;3.17;;;;;;;;;;5075821;28;20074;-79
2021/09/01 05:28:33;;;;;;;6.40;5.80;;;;;;;;;;5076944;28;20029;-77
2021/09/01 05:31:00;;;;;;;6.43;3.63;;;;;;;;;;5077202;28;20069;-77
2021/09/01 05:33:35;;;;;;;4.53;3.42;;;;;;;;;;5076673;28;20056;-78
2021/09/01 05:36:02;;;;;;;6.15;2.22;;;;;;;;;;5076409;28;20377;-77
2021/09/01 05:38:31;;;;;;;5.05;3.63;;;;;;;;;;5076164;28;20027;-77
2021/09/01 05:40:57;;;;;;;6.25;3.08;;;;;;;;;;5076205;28;20032;-77
2021/09/01 05:43:25;;;;;;;8.32;4.18;;;;;;;;;;5091719;28;20388;-78
2021/09/01 05:45:50;;;;;;;6.07;3.35;;;;;;;;;;5076364;28;20029;-79
2021/09/01 05:48:19;;;;;;;8.30;3.80;;;;;;;;;;5065201;28;20024;-79
2021/09/01 05:50:50;;;;;;;5.95;4.18;;;;;;;;;;5072182;28;20028;-80
2021/09/01 05:53:15;;;;;;;5.43;4.18;;;;;;;;;;5057324;28;20064;-79
2021/09/01 05:55:44;;;;;;;5.40;3.15;;;;;;;;;;5056188;28;20068;-80
2021/09/01 05:58:13;;;;;;;5.35;3.70;;;;;;;;;;5056417;28;20036;-81
2021/09/01 06:00:40;;;;;;;5.43;3.17;;;;;;;;;;5056007;28;20040;-78
2021/09/01 06:03:30;;;;;;;5.30;3.65;;;;;;;;;;5056192;28;20060;-81
2021/09/01 06:05:58;;;;;;;5.70;3.50;;;;;;;;;;5056474;28;20388;-81
2021/09/01 06:08:30;;;;;;;7.20;3.70;;;;;;;;;;5071114;28;20029;-80
2021/09/01 06:10:58;;;;;;;4.93;3.25;;;;;;;;;;5054783;28;20126;-81
2021/09/01 06:13:24;;;;;;;6.00;3.90;;;;;;;;;;5054498;28;20039;-81
2021/09/01 06:15:50;;;;;;;5.93;3.78;;;;;;;;;;5054383;28;20112;-80
2021/09/01 06:18:16;;;;;;;5.38;2.80;;;;;;;;;;5055421;28;20051;-79
2021/09/01 06:20:43;;;;;;;6.10;4.10;;;;;;;;;;5055289;28;20025;-79
2021/09/01 06:23:08;;;;;;;5.43;3.13;;;;;;;;;;5054891;28;20071;-82
2021/09/01 06:25:34;;;;;;;5.88;3.70;;;;;;;;;;5055603;28;20056;-80
2021/09/01 06:28:00;;;;;;;5.20;2.47;;;;;;;;;;5055766;28;20483;-79
2021/09/01 06:30:26;;;;;;;4.97;3.70;;;;;;;;;;5064666;28;20028;-79
2021/09/01 06:32:52;;;;;;;5.30;2.25;;;;;;;;;;5073840;28;20036;-80
2021/09/01 06:35:18;;;;;;;4.00;2.58;;;;;;;;;;5074338;28;20033;-82
2021/09/01 06:37:45;;;;;;;4.25;3.53;;;;;;;;;;5073884;28;20103;-84
2021/09/01 06:40:12;;;;;;;4.22;2.92;;;;;;;;;;5074624;28;20029;-82
2021/09/01 06:42:38;;;;;;;5.05;3.20;;;;;;;;;;5074467;28;20028;-84
2021/09/01 06:45:05;;;;;;;4.68;3.03;;;;;;;;;;5074787;28;20028;-82
2021/09/01 06:47:39;;;;;;;7.03;2.75;;;;;;;;;;5074396;28;20047;-83
2021/09/01 06:50:05;;;;;;;4.25;2.58;;;;;;;;;;5074242;28;20024;-81
2021/09/01 06:52:31;;;;;;;3.95;1.38;;;;;;;;;;5074116;28;20138;-80
2021/09/01 06:54:56;;;;;;;10.35;3.22;;;;;;;;;;5074587;28;20483;-80
2021/09/01 06:57:22;;;;;;;3.80;1.65;;;;;;;;;;5074295;28;20484;-80
2021/09/01 06:59:47;;;;;;;3.58;0.98;;;;;;;;;;5075356;28;20024;-80
2021/09/01 07:02:13;;;;;;;4.18;1.85;;;;;;;;;;5076758;28;20492;-82
2021/09/01 07:04:39;;;;;;;4.63;1.95;;;;;;;;;;5075509;28;20090;-80
2021/09/01 07:07:04;;;;;;;5.13;2.17;;;;;;;;;;5094447;28;20031;-81
2021/09/01 07:09:30;;;;;;;3.60;1.90;;;;;;;;;;5093359;28;20076;-81
2021/09/01 07:11:55;;;;;;;15.48;2.00;;;;;;;;;;5075446;28;20033;-81
2021/09/01 07:14:21;;;;;;;5.68;1.58;;;;;;;;;;5075216;28;20020;-81
2021/09/01 07:16:47;;;;;;;3.75;1.35;;;;;;;;;;5074503;28;20041;-80
2021/09/01 07:19:12;;;;;;;6.05;2.63;;;;;;;;;;5074032;28;20025;-81
2021/09/01 07:21:41;;;;;;;4.32;1.30;;;;;;;;;;5073935;28;20039;-80
2021/09/01 07:24:06;;;;;;;5.13;2.58;;;;;;;;;;5073909;28;20438;-80
2021/09/01 07:26:32;;;;;;;8.35;2.42;;;;;;;;;;5073346;28;20024;-80
2021/09/01 07:28:57;;;;;;;4.38;2.53;;;;;;;;;;5063223;28;20036;-80
2021/09/01 07:31:23;;;;;;;3.33;2.20;;;;;;;;;;5053690;28;20484;-83
2021/09/01 07:33:49;;;;;;;9.73;1.42;;;;;;;;;;5053515;28;20024;-81
2021/09/01 07:36:14;;;;;;;4.70;2.03;;;;;;;;;;5053564;28;20028;-81
2021/09/01 07:38:40;;;;;;;3.78;0.98;;;;;;;;;;5052688;28;20023;-81
2021/09/01 07:41:05;;;;;;;4.32;2.40;;;;;;;;;;5053063;28;20032;-80
2021/09/01 07:43:31;;;;;;;3.35;1.65;;;;;;;;;;5053500;28;20029;-80
2021/09/01 07:45:57;;;;;;;2.50;1.17;;;;;;;;;;5053393;28;20056;-81
2021/09/01 07:48:22;;;;;;;5.30;2.65;;;;;;;;;;5053301;28;20166;-81
2021/09/01 07:50:51;;;;;;;3.97;1.42;;;;;;;;;;5052875;28;20025;-81
2021/09/01 07:53:16;;;;;;;3.10;0.90;;;;;;;;;;5052795;28;20020;-79
2021/09/01 07:55:42;;;;;;;4.25;2.45;;;;;;;;;;5062999;28;20020;-80
2021/09/01 07:58:07;;;;;;;3.90;1.33;;;;;;;;;;5073230;28;20020;-78
2021/09/01 08:00:33;;;;;;;2.55;0.85;;;;;;;;;;5071036;28;20031;-79
2021/09/01 08:02:59;;;;;;;2.58;0.98;;;;;;;;;;5066000;28;20545;-79
2021/09/01 08:05:24;;;;;;;16.50;1.02;;;;;;;;;;5069178;28;20109;-79
2021/09/01 08:07:50;;;;;;;11.73;1.92;;;;;;;;;;5071584;28;20013;-80
2021/09/01 08:10:16;;;;;;;5.82;1.95;;;;;;;;;;5072051;28;20025;-80
2021/09/01 08:12:42;;;;;;;2.58;1.85;;;;;;;;;;5072797;28;20031;-79
2021/09/01 08:15:10;;;;;;;10.85;1.23;;;;;;;;;;5072879;28;20496;-80
2021/09/01 08:17:36;;;;;;;3.00;0.85;;;;;;;;;;5072649;28;20044;-79
2021/09/01 08:20:04;;;;;;;2.92;0.63;;;;;;;;;;5072980;28;20027;-81
2021/09/01 08:22:29;;;;;;;5.70;0.90;;;;;;;;;;5072212;28;20033;-79
2021/09/01 08:24:55;;;;;;;2.38;0.70;;;;;;;;;;5072832;28;20021;-79
2021/09/01 08:27:21;;;;;;;2.10;1.27;;;;;;;;;;5072730;28;20376;-81
2021/09/01 08:29:46;;;;;;;2.85;1.70;;;;;;;;;;5072588;28;20025;-80
2021/09/01 08:32:12;;;;;;;1.92;0.60;;;;;;;;;;5071103;28;20021;-80
2021/09/01 08:34:38;;;;;;;2.20;1.00;;;;;;;;;;5072424;28;20033;-80
2021/09/01 08:37:04;;;;;;;2.47;1.35;;;;;;;;;;5072640;28;20024;-81
2021/09/01 08:39:32;;;;;;;6.25;1.00;;;;;;;;;;5072887;28;20124;-80
2021/09/01 08:41:57;;;;;;;4.95;0.63;;;;;;;;;;5073535;28;20021;-80
2021/09/01 08:44:23;;;;;;;2.47;0.90;;;;;;;;;;5069986;28;20029;-81
2021/09/01 08:46:50;;;;;;;2.00;1.48;;;;;;;;;;5063039;28;20384;-81
2021/09/01 08:49:19;;;;;;;8.75;2.17;;;;;;;;;;5064434;28;20037;-80
2021/09/01 08:51:48;;;;;;;7.22;1.00;;;;;;;;;;5074138;28;20079;-82
2021/09/01 08:54:15;;;;;;;4.07;1.85;;;;;;;;;;5071787;28;20059;-81
2021/09/01 08:56:42;;;;;;;2.42;0.52;;;;;;;;;;5067786;28;20033;-80
2021/09/01 08:59:08;;;;;;;2.13;0.65;;;;;;;;;;5056817;28;20469;-81
2021/09/01 09:01:45;;;;;;;1.88;0.73;;;;;;;;;;5056315;28;20032;-80
2021/09/01 09:04:32;;;;;;;2.35;0.77;;;;;;;;;;5056170;28;20036;-79
2021/09/01 09:07:00;;;;;;;1.75;0.55;;;;;;;;;;5056546;28;20070;-80
2021/09/01 09:09:28;;;;;;;1.48;0.60;;;;;;;;;;5055810;28;20029;-80
2021/09/01 09:11:55;;;;;;;3.55;0.57;;;;;;;;;;5073811;28;20032;-79
2021/09/01 09:14:25;;;;;;;3.03;1.08;;;;;;;;;;5074387;28;20407;-79
2021/09/01 09:17:14;;;;;;;2.22;0.50;;;;;;;;;;5075080;28;20044;-78
2021/09/01 09:19:48;;;;;;;3.38;0.50;;;;;;;;;;5075783;28;20078;-80
2021/09/01 09:22:33;;;;;;;1.77;0.57;;;;;;;;;;5074514;28;20029;-79
2021/09/01 09:25:11;;;;;;;2.90;1.05;;;;;;;;;;5075311;28;20388;-80
2021/09/01 09:27:44;;;;;;;3.67;0.57;;;;;;;;;;5074488;28;20575;-78
2021/09/01 09:30:19;;;;;;;3.10;0.70;;;;;;;;;;5075323;28;20055;-79
2021/09/01 09:33:08;;;;;;;1.77;0.60;;;;;;;;;;5091342;28;20032;-78
2021/09/01 09:35:58;;;;;;;2.33;0.68;;;;;;;;;;5075725;28;20013;-78
2021/09/01 09:38:29;;;;;;;2.22;0.65;;;;;;;;;;5075626;28;20056;-78
2021/09/01 09:40:55;;;;;;;3.08;0.90;;;;;;;;;;5074997;28;20476;-79
2021/09/01 09:43:22;;;;;;;2.35;0.77;;;;;;;;;;5075715;28;20035;-78
2021/09/01 09:45:58;;;;;;;2.97;2.65;;;;;;;;;;5075606;28;20048;-79
2021/09/01 09:48:28;;;;;;;;;;;;;;;;;;5075593;28;20025;-79
2021/09/01 09:50:54;;;;;;;1.88;0.63;;;;;;;;;;5075253;28;19919;-78
2021/09/01 09:53:43;;;;;;;1.95;0.65;;;;;;;;;;5074846;28;20025;-78
2021/09/01 09:56:18;;;;;;;3.78;2.80;;;;;;;;;;5071137;28;20075;-80
2021/09/01 09:58:49;;;;;;;2.72;0.80;;;;;;;;;;5070515;28;20133;-77
2021/09/01 10:01:17;;;;;;;2.65;0.88;;;;;;;;;;5074976;28;20385;-78
2021/09/01 10:10:26;;;;;;;2.22;0.95;;;;;;;;;;5055213;28;20396;-82
2021/09/01 10:12:52;;;;;;;3.85;2.10;;;;;;;;;;5072446;28;20111;-79
2021/09/01 10:15:29;;;;;;;3.60;0.52;;;;;;;;;;5066531;28;20033;-78
2021/09/01 10:18:01;;;;;;;2.63;1.85;;;;;;;;;;5070016;28;20496;-79
2021/09/01 10:20:29;;;;;;;2.40;0.57;;;;;;;;;;5074893;28;20032;-78
2021/09/01 10:23:18;;;;;;;2.88;2.55;;;;;;;;;;5074174;28;20039;-76
2021/09/01 10:25:50;;;;;;;2.72;2.53;;;;;;;;;;5074613;28;20054;-77
2021/09/01 10:28:34;;;;;;;4.43;2.13;;;;;;;;;;5074649;28;20066;-78
2021/09/01 10:31:21;;;;;;;1.70;0.65;;;;;;;;;;5074351;28;20083;-79
2021/09/01 10:33:58;;;;;;;2.97;0.47;;;;;;;;;;5073284;28;20160;-79
2021/09/01 10:36:23;;;;;;;1.77;0.57;;;;;;;;;;5074407;28;20020;-80
2021/09/01 10:38:49;;;;;;;4.80;0.65;;;;;;;;;;5073778;28;20025;-79
2021/09/01 10:41:29;;;;;;;2.42;0.60;;;;;;;;;;5074735;28;20055;-79
2021/09/01 10:44:13;;;;;;;2.00;0.50;;;;;;;;;;5072542;28;20029;-80
2021/09/01 10:46:51;;;;;;;2.13;0.70;;;;;;;;;;5073860;28;20031;-78
2021/09/01 10:49:28;;;;;;;15.63;2.70;;;;;;;;;;5074764;28;20029;-80
2021/09/01 10:51:56;;;;;;;4.75;0.40;;;;;;;;;;5073402;28;20541;-79
2021/09/01 10:54:34;;;;;;;4.53;0.60;;;;;;;;;;5074251;28;20032;-79
2021/09/01 10:57:03;;;;;;;1.73;0.43;;;;;;;;;;5074273;28;20055;-80
2021/09/01 10:59:47;;;;;;;2.42;2.20;;;;;;;;;;5068417;28;20025;-78
2021/09/01 11:02:14;;;;;;;1.83;1.55;;;;;;;;;;5073953;28;20533;-79
2021/09/01 11:04:51;;;;;;;3.72;0.70;;;;;;;;;;5073829;28;20074;-78
2021/09/01 11:07:29;;;;;;;4.30;0.47;;;;;;;;;;5073740;28;20110;-82
2021/09/01 11:09:57;;;;;;;4.30;0.32;;;;;;;;;;5074204;28;20025;-80
2021/09/01 11:12:23;;;;;;;4.53;0.60;;;;;;;;;;5073904;28;20546;-81
2021/09/01 11:14:51;;;;;;;3.65;0.38;;;;;;;;;;5073593;28;20025;-78
2021/09/01 11:17:19;;;;;;;1.90;0.30;;;;;;;;;;5073061;28;20573;-79
2021/09/01 11:19:53;;;;;;;2.53;0.30;;;;;;;;;;5059246;28;20070;-78
2021/09/01 11:22:24;;;;;;;2.92;0.60;;;;;;;;;;5063032;28;20384;-78
2021/09/01 11:25:04;;;;;;;1.15;0.30;;;;;;;;;;5053796;28;20025;-78
2021/09/01 11:27:32;;;;;;;1.65;1.30;;;;;;;;;;5053396;28;20037;-79
2021/09/01 11:30:06;;;;;;;1.65;0.40;;;;;;;;;;5072376;28;20475;-79
2021/09/01 11:32:32;;;;;;;1.05;0.20;;;;;;;;;;5073700;28;20108;-78
2021/09/01 11:35:01;;;;;;;2.13;0.57;;;;;;;;;;5073425;28;20024;-79
2021/09/01 11:37:27;;;;;;;;;;;;;;;;;;5074007;28;20472;-78
2021/09/01 11:39:53;;;;;;;2.22;0.35;;;;;;;;;;5088726;28;19919;-78
2021/09/01 11:42:18;;;;;;;1.15;0.32;;;;;;;;;;5092570;28;20058;-77
2021/09/01 11:44:54;;;;;;;3.17;0.30;;;;;;;;;;5079635;28;20649;-78
2021/09/01 11:47:20;;;;;;;2.55;0.30;;;;;;;;;;5074533;28;20024;-78
2021/09/01 11:49:48;;;;;;;4.85;0.73;;;;;;;;;;5074398;28;20024;-77
2021/09/01 11:52:14;;;;;;;2.22;0.30;;;;;;;;;;5073672;28;20031;-77
2021/09/01 11:54:40;;;;;;;2.80;0.47;;;;;;;;;;5073352;28;20028;-78
2021/09/01 11:57:08;;;;;;;1.33;0.40;;;;;;;;;;5073399;28;20025;-79
2021/09/01 11:59:37;;;;;;;2.80;1.50;;;;;;;;;;5073098;28;20024;-78
2021/09/01 12:02:04;;;;;;;1.00;0.30;;;;;;;;;;5072859;28;20028;-77
2021/09/01 12:04:30;;;;;;;1.38;0.55;;;;;;;;;;5071591;28;20028;-77
2021/09/01 12:06:58;;;;;;;6.05;0.40;;;;;;;;;;5072739;28;20031;-77
2021/09/01 12:09:25;;;;;;;4.75;1.35;;;;;;;;;;5073014;28;20415;-77
2021/09/01 12:11:55;;;;;;;1.08;0.38;;;;;;;;;;5056848;28;20031;-77
2021/09/01 12:14:26;;;;;;;3.88;0.43;;;;;;;;;;5065360;28;20090;-77
2021/09/01 12:16:54;;;;;;;2.13;0.28;;;;;;;;;;5072765;28;20036;-76
2021/09/01 12:19:21;;;;;;;3.05;0.32;;;;;;;;;;5071247;28;20484;-76
2021/09/01 12:21:58;;;;;;;2.03;0.30;;;;;;;;;;5072593;28;20036;-78
2021/09/01 12:24:58;;;;;;;2.00;0.45;;;;;;;;;;5072746;28;20033;-78
2021/09/01 12:27:24;;;;;;;2.58;0.30;;;;;;;;;;5070779;28;20032;-77
2021/09/01 12:29:51;;;;;;;3.25;0.40;;;;;;;;;;5072730;28;20093;-79
2021/09/01 12:32:21;;;;;;;3.83;0.55;;;;;;;;;;5065982;28;20071;-77
2021/09/01 12:34:55;;;;;;;1.85;0.40;;;;;;;;;;5070504;28;20066;-78
2021/09/01 12:37:24;;;;;;;3.05;0.35;;;;;;;;;;5072099;28;20421;-79
2021/09/01 12:39:55;;;;;;;2.30;1.60;;;;;;;;;;5072562;28;20025;-79
2021/09/01 12:42:25;;;;;;;5.28;1.77;;;;;;;;;;5072501;28;20388;-81
2021/09/01 12:44:55;;;;;;;1.73;1.40;;;;;;;;;;5072844;28;20028;-79
2021/09/01 12:47:22;;;;;;;2.17;1.70;;;;;;;;;;5072969;28;20020;-82
2021/09/01 12:49:51;;;;;;;3.03;1.58;;;;;;;;;;5068805;28;20361;-81
2021/09/01 12:52:18;;;;;;;1.10;0.20;;;;;;;;;;5062542;28;20246;-81
2021/09/01 12:54:44;;;;;;;8.48;0.40;;;;;;;;;;5074764;28;20021;-81
2021/09/01 12:57:10;;;;;;;1.25;0.38;;;;;;;;;;5053102;28;20025;-80
2021/09/01 12:59:36;;;;;;;2.50;0.40;;;;;;;;;;5052608;28;20116;-80
2021/09/01 13:02:04;;;;;;;1.10;0.30;;;;;;;;;;5051917;28;20110;-80
2021/09/01 13:04:30;;;;;;;1.33;0.30;;;;;;;;;;5052324;28;20480;-79
2021/09/01 13:06:56;;;;;;;2.30;0.32;;;;;;;;;;5055898;28;20074;-79
2021/09/01 13:09:23;;;;;;;0.82;0.30;;;;;;;;;;5072332;28;20017;-81
2021/09/01 13:11:49;;;;;;;0.98;0.30;;;;;;;;;;5069474;28;20071;-80
2021/09/01 13:14:15;;;;;;;1.80;0.35;;;;;;;;;;5072131;28;20056;-79
2021/09/01 13:16:43;;;;;;;1.55;0.38;;;;;;;;;;5072216;28;20082;-79
2021/09/01 13:19:08;;;;;;;3.65;0.52;;;;;;;;;;5072378;28;20078;-79
2021/09/01 13:21:34;;;;;;;1.38;0.35;;;;;;;;;;5072527;28;20028;-78
2021/09/01 13:24:00;;;;;;;1.23;0.28;;;;;;;;;;5071334;28;20024;-80
2021/09/01 13:26:25;;;;;;;1.52;1.10;;;;;;;;;;5072280;28;20381;-79
2021/09/01 13:28:51;;;;;;;4.55;0.40;;;;;;;;;;5072508;28;20021;-79
2021/09/01 13:31:17;;;;;;;2.13;0.30;;;;;;;;;;5070952;28;20041;-80
2021/09/01 13:33:44;;;;;;;6.43;0.30;;;;;;;;;;5072506;28;20025;-81
2021/09/01 13:36:10;;;;;;;0.90;0.65;;;;;;;;;;5071227;28;20025;-82
2021/09/01 13:38:36;;;;;;;2.78;0.30;;;;;;;;;;5074444;28;20024;-82
2021/09/01 13:41:04;;;;;;;7.45;0.60;;;;;;;;;;5075574;28;20031;-82
2021/09/01 13:43:31;;;;;;;4.57;0.20;;;;;;;;;;5074209;28;20507;-80
2021/09/01 13:46:21;;;;;;;3.00;0.38;;;;;;;;;;5057956;28;20029;-80
2021/09/01 13:48:47;;;;;;;3.35;0.95;;;;;;;;;;5075215;28;20019;-82
2021/09/01 13:51:12;;;;;;;4.32;0.30;;;;;;;;;;5068917;28;20021;-81
2021/09/01 13:53:38;;;;;;;1.48;0.40;;;;;;;;;;5068614;28;20028;-81
2021/09/01 13:56:07;;;;;;;5.85;1.85;;;;;;;;;;5074995;28;20020;-81
2021/09/01 13:58:33;;;;;;;1.60;0.50;;;;;;;;;;5075909;28;20036;-81
2021/09/01 14:00:59;;;;;;;4.78;0.47;;;;;;;;;;5075039;28;20020;-81
2021/09/01 14:03:30;;;;;;;1.05;0.20;;;;;;;;;;5073192;28;20400;-81
2021/09/01 14:05:56;;;;;;;2.58;0.38;;;;;;;;;;5089558;28;20025;-81
2021/09/01 14:08:22;;;;;;;2.33;0.93;;;;;;;;;;5073966;28;20384;-81
2021/09/01 14:10:47;;;;;;;1.30;0.30;;;;;;;;;;5073856;28;20211;-80
2021/09/01 14:13:13;;;;;;;2.78;0.60;;;;;;;;;;5075521;28;20115;-80
2021/09/01 14:15:39;;;;;;;2.28;0.32;;;;;;;;;;5075009;28;20025;-79
2021/09/01 14:18:05;;;;;;;4.95;0.68;;;;;;;;;;5074433;28;20485;-80
2021/09/01 14:20:30;;;;;;;6.32;0.30;;;;;;;;;;5074888;28;20028;-80
2021/09/01 14:22:58;;;;;;;2.25;0.38;;;;;;;;;;5074819;28;20036;-81
2021/09/01 14:25:24;;;;;;;2.42;0.28;;;;;;;;;;5074603;28;20025;-80
2021/09/01 14:27:50;;;;;;;3.00;0.60;;;;;;;;;;5075005;28;20025;-81
2021/09/01 14:30:16;;;;;;;1.80;0.40;;;;;;;;;;5072663;28;20028;-81
2021/09/01 14:32:43;;;;;;;2.92;0.30;;;;;;;;;;5074743;28;20485;-80
2021/09/01 14:35:10;;;;;;;1.75;0.98;;;;;;;;;;5074752;28;20123;-81
2021/09/01 14:37:36;;;;;;;2.13;0.20;;;;;;;;;;5073438;28;20044;-80
2021/09/01 14:40:05;;;;;;;6.88;0.40;;;;;;;;;;5074399;28;20029;-80
2021/09/01 14:42:30;;;;;;;1.25;0.40;;;;;;;;;;5074484;28;20035;-81
2021/09/01 14:44:56;;;;;;;4.57;0.30;;;;;;;;;;5074364;28;20099;-80
2021/09/01 14:47:22;;;;;;;7.43;0.30;;;;;;;;;;5074459;28;20031;-81
2021/09/01 14:49:48;;;;;;;2.20;0.28;;;;;;;;;;5074459;28;20108;-80
2021/09/01 14:52:14;;;;;;;3.17;1.05;;;;;;;;;;5074262;28;20388;-82
2021/09/01 14:54:39;;;;;;;6.40;0.40;;;;;;;;;;5074518;28;20020;-80
2021/09/01 14:57:05;;;;;;;1.55;0.20;;;;;;;;;;5072725;28;20028;-81